Time;durP1;ratioP1;P1;durP2;ratioP2;P2;SDS_P1;SDS_P2;PMS_P1;PMS_P2;Temp;Humidity;BMP_temperature;BMP_pressure;BME280_temperature;BME280_humidity;BME280_pressure;Samples;Min_cycle;Max_cycle;Signal;HPM_P1;HPM_P2
2021/04/02 00:01:08;;;;;;;;;;;17.60;49.70;;;;;;5053796;28;75169;-69
2021/04/02 00:03:35;;;;;;;;;;;17.70;49.60;;;;;;5052056;28;76909;-70
2021/04/02 00:06:02;;;;;;;;;;;17.70;49.80;;;;;;5053398;28;74973;-69
2021/04/02 00:08:27;;;;;;;;;;;17.70;49.70;;;;;;5053716;28;75658;-71
2021/04/02 00:10:57;;;;;;;;;;;17.70;49.70;;;;;;5054456;28;75241;-70
2021/04/02 00:13:24;;;;;;;;;;;17.60;49.80;;;;;;5054332;28;77565;-70
2021/04/02 00:15:50;;;;;;;;;;;17.60;49.80;;;;;;5060591;28;74430;-69
2021/04/02 00:18:16;;;;;;;;;;;17.60;49.90;;;;;;5059931;28;75283;-70
2021/04/02 00:20:42;;;;;;;;;;;17.60;49.90;;;;;;5055518;28;75188;-68
2021/04/02 00:23:08;;;;;;;;;;;17.60;49.80;;;;;;5051890;28;78227;-69
2021/04/02 00:25:34;;;;;;;;;;;17.60;50.20;;;;;;5053241;28;75163;-67
2021/04/02 00:28:00;;;;;;;;;;;17.50;50.00;;;;;;5053453;28;74557;-70
2021/04/02 00:30:46;;;;;;;;;;;17.60;50.10;;;;;;5051313;28;76425;-69
2021/04/02 00:33:12;;;;;;;;;;;17.60;50.20;;;;;;5052672;27;75691;-69
2021/04/02 00:35:38;;;;;;;;;;;17.60;50.20;;;;;;5051321;28;77922;-69
2021/04/02 00:38:05;;;;;;;;;;;17.60;50.50;;;;;;5052788;28;75447;-70
2021/04/02 00:40:31;;;;;;;;;;;17.60;50.50;;;;;;5053313;28;74468;-68
2021/04/02 00:42:57;;;;;;;;;;;17.60;50.50;;;;;;5052796;28;75266;-67
2021/04/02 00:45:23;;;;;;;;;;;17.60;50.50;;;;;;5051279;28;78261;-68
2021/04/02 00:47:50;;;;;;;;;;;17.50;50.40;;;;;;5051006;28;75990;-69
2021/04/02 00:50:34;;;;;;;;;;;17.50;50.50;;;;;;5051095;28;79485;-71
2021/04/02 00:53:00;;;;;;;;;;;17.40;50.70;;;;;;5052322;27;75102;-71
2021/04/02 00:55:25;;;;;;;;;;;17.50;50.60;;;;;;5052878;28;75112;-69
2021/04/02 00:57:51;;;;;;;;;;;17.50;50.60;;;;;;5051318;28;78075;-71
2021/04/02 01:00:17;;;;;;;;;;;17.50;50.70;;;;;;5052638;28;75269;-68
2021/04/02 01:02:43;;;;;;;;;;;17.50;50.70;;;;;;5052585;28;75815;-69
2021/04/02 01:05:18;;;;;;;;;;;17.50;50.60;;;;;;5052355;28;75407;-67
2021/04/02 01:07:48;;;;;;;;;;;17.50;50.10;;;;;;5052101;28;77156;-69
2021/04/02 01:10:15;;;;;;;;;;;17.60;50.40;;;;;;5050524;28;78265;-67
2021/04/02 01:12:41;;;;;;;;;;;17.50;50.40;;;;;;5050721;28;78052;-69
2021/04/02 01:15:16;;;;;;;;;;;17.50;50.20;;;;;;5052375;28;75393;-69
2021/04/02 01:17:43;;;;;;;;;;;17.50;50.80;;;;;;5052587;28;74472;-68
2021/04/02 01:20:09;;;;;;;;;;;17.60;50.70;;;;;;5051201;28;78148;-70
2021/04/02 01:22:35;;;;;;;;;;;17.60;50.70;;;;;;5052025;28;76654;-70
2021/04/02 01:25:00;;;;;;;;;;;17.60;50.70;;;;;;5052496;28;75427;-69
2021/04/02 01:27:35;;;;;;;;;;;17.60;50.70;;;;;;5051510;28;75127;-70
2021/04/02 01:30:04;;;;;;;;;;;17.50;50.60;;;;;;5052357;28;74344;-71
2021/04/02 01:32:35;;;;;;;;;;;17.50;51.00;;;;;;5052259;28;74703;-70
2021/04/02 01:35:11;;;;;;;;;;;17.50;50.60;;;;;;5052609;28;74659;-69
2021/04/02 01:37:38;;;;;;;;;;;17.40;51.30;;;;;;5050292;28;75416;-68
2021/04/02 01:40:06;;;;;;;;;;;17.40;51.90;;;;;;5051871;28;75129;-70
2021/04/02 01:42:33;;;;;;;;;;;17.40;51.10;;;;;;5051929;28;75833;-70
2021/04/02 01:44:59;;;;;;;;;;;17.40;52.10;;;;;;5051796;28;75456;-68
2021/04/02 01:47:25;;;;;;;;;;;17.40;52.10;;;;;;5051782;28;75608;-69
2021/04/02 01:49:53;;;;;;;;;;;17.30;51.70;;;;;;5051874;28;74965;-68
2021/04/02 01:52:20;;;;;;;;;;;17.30;52.50;;;;;;5052419;28;75882;-68
2021/04/02 01:54:46;;;;;;;;;;;17.30;52.50;;;;;;5051557;28;75212;-68
2021/04/02 01:57:12;;;;;;;;;;;17.20;52.50;;;;;;5050244;28;78335;-66
2021/04/02 01:59:39;;;;;;;;;;;17.20;52.80;;;;;;5051754;28;75320;-67
2021/04/02 02:02:06;;;;;;;;;;;17.20;52.70;;;;;;5051290;28;75154;-68
2021/04/02 02:04:33;;;;;;;;;;;17.20;52.90;;;;;;5051899;28;74602;-67
2021/04/02 02:06:59;;;;;;;;;;;17.20;53.90;;;;;;5049825;28;78530;-66
2021/04/02 02:09:27;;;;;;;;;;;17.20;53.50;;;;;;5049690;28;76320;-69
2021/04/02 02:11:54;;;;;;;;;;;17.10;53.00;;;;;;5051630;28;74492;-67
2021/04/02 02:14:21;;;;;;;;;;;17.00;53.70;;;;;;5052160;28;75294;-67
2021/04/02 02:16:50;;;;;;;;;;;17.00;53.50;;;;;;5051804;28;74376;-68
2021/04/02 02:19:18;;;;;;;;;;;17.00;52.60;;;;;;5051140;28;76560;-67
2021/04/02 02:21:44;;;;;;;;;;;16.90;53.30;;;;;;5050832;28;76925;-68
2021/04/02 02:24:10;;;;;;;;;;;16.90;53.60;;;;;;5051437;28;75735;-66
2021/04/02 02:26:37;;;;;;;;;;;16.90;54.30;;;;;;5051435;28;75073;-68
2021/04/02 02:29:03;;;;;;;;;;;16.90;54.40;;;;;;5051595;28;75339;-69
2021/04/02 02:31:28;;;;;;;;;;;16.80;55.00;;;;;;5051179;28;75079;-67
2021/04/02 02:33:54;;;;;;;;;;;16.80;55.00;;;;;;5049533;28;76159;-66
2021/04/02 02:36:20;;;;;;;;;;;16.70;55.10;;;;;;5051265;28;75232;-70
2021/04/02 02:38:45;;;;;;;;;;;16.70;55.30;;;;;;5051425;27;74473;-69
2021/04/02 02:41:11;;;;;;;;;;;16.80;55.40;;;;;;5054344;28;75114;-70
2021/04/02 02:43:37;;;;;;;;;;;16.70;55.40;;;;;;5087412;27;76431;-69
2021/04/02 02:46:02;;;;;;;;;;;16.70;54.30;;;;;;5053205;28;74844;-69
2021/04/02 02:48:28;;;;;;;;;;;16.70;55.00;;;;;;5054585;28;75719;-69
2021/04/02 02:50:56;;;;;;;;;;;16.60;54.90;;;;;;5054740;28;75360;-68
2021/04/02 02:53:23;;;;;;;;;;;16.60;55.20;;;;;;5054702;28;74563;-68
2021/04/02 02:55:50;;;;;;;;;;;16.60;55.40;;;;;;5053269;28;77424;-68
2021/04/02 02:58:16;;;;;;;;;;;16.50;55.40;;;;;;5052489;28;76976;-69
2021/04/02 03:00:43;;;;;;;;;;;16.50;55.20;;;;;;5055094;28;75266;-67
2021/04/02 03:03:15;;;;;;;;;;;16.50;55.90;;;;;;5052563;28;76643;-70
2021/04/02 03:05:46;;;;;;;;;;;16.40;55.10;;;;;;5052498;28;77662;-69
2021/04/02 03:08:13;;;;;;;;;;;16.40;56.10;;;;;;5053910;27;75009;-67
2021/04/02 03:10:39;;;;;;;;;;;16.40;56.30;;;;;;5052538;28;77093;-69
2021/04/02 03:13:05;;;;;;;;;;;16.40;56.60;;;;;;5052693;28;77378;-69
2021/04/02 03:15:31;;;;;;;;;;;16.40;56.30;;;;;;5053696;27;75628;-67
2021/04/02 03:18:00;;;;;;;;;;;16.40;57.20;;;;;;5052285;28;77254;-69
2021/04/02 03:20:26;;;;;;;;;;;16.30;56.90;;;;;;5052509;28;77351;-69
2021/04/02 03:22:53;;;;;;;;;;;16.30;57.20;;;;;;5054152;28;75177;-67
2021/04/02 03:25:20;;;;;;;;;;;16.30;56.80;;;;;;5052444;28;77066;-68
2021/04/02 03:27:46;;;;;;;;;;;16.30;57.60;;;;;;5053868;28;75737;-70
2021/04/02 03:30:13;;;;;;;;;;;16.30;57.10;;;;;;5052378;28;76416;-68
2021/04/02 03:32:40;;;;;;;;;;;16.30;57.10;;;;;;5051948;28;77689;-70
2021/04/02 03:35:06;;;;;;;;;;;16.40;58.50;;;;;;5053966;28;75236;-68
2021/04/02 03:37:36;;;;;;;;;;;16.30;58.30;;;;;;5054142;28;75129;-69
2021/04/02 03:40:05;;;;;;;;;;;16.20;58.10;;;;;;5053523;28;75232;-70
2021/04/02 03:42:31;;;;;;;;;;;16.20;59.20;;;;;;5053744;28;76484;-68
2021/04/02 03:44:59;;;;;;;;;;;16.20;58.40;;;;;;5052245;28;78208;-67
2021/04/02 03:47:26;;;;;;;;;;;16.20;58.20;;;;;;5053657;28;75279;-68
2021/04/02 03:49:52;;;;;;;;;;;16.20;58.00;;;;;;5053471;27;74382;-67
2021/04/02 03:52:22;;;;;;;;;;;16.20;57.70;;;;;;5052000;28;77754;-67
2021/04/02 03:54:49;;;;;;;;;;;16.20;58.00;;;;;;5053860;28;75274;-68
2021/04/02 03:57:15;;;;;;;;;;;16.20;58.00;;;;;;5052463;28;75403;-67
2021/04/02 03:59:41;;;;;;;;;;;16.20;58.00;;;;;;5053532;28;76316;-66
2021/04/02 04:02:08;;;;;;;;;;;16.10;57.40;;;;;;5052841;28;76133;-67
2021/04/02 04:04:34;;;;;;;;;;;16.00;57.80;;;;;;5053346;28;75321;-69
2021/04/02 04:07:01;;;;;;;;;;;16.00;58.70;;;;;;5053575;28;74620;-68
2021/04/02 04:09:28;;;;;;;;;;;16.00;58.70;;;;;;5051730;28;78136;-69
2021/04/02 04:11:55;;;;;;;;;;;16.10;57.70;;;;;;5053675;28;75160;-67
2021/04/02 04:14:21;;;;;;;;;;;16.10;58.80;;;;;;5053134;28;75079;-68
2021/04/02 04:16:48;;;;;;;;;;;16.00;58.90;;;;;;5053319;28;75212;-69
2021/04/02 04:19:15;;;;;;;;;;;16.00;60.60;;;;;;5053207;27;75144;-68
2021/04/02 04:21:41;;;;;;;;;;;16.00;61.70;;;;;;5085276;27;77616;-67
2021/04/02 04:24:10;;;;;;;;;;;15.90;61.80;;;;;;5052943;28;75148;-67
2021/04/02 04:26:36;;;;;;;;;;;15.90;63.00;;;;;;5052932;28;75322;-70
2021/04/02 04:29:02;;;;;;;;;;;15.80;62.10;;;;;;5053110;28;75220;-66
2021/04/02 04:31:29;;;;;;;;;;;15.70;63.00;;;;;;5052807;28;75165;-68
2021/04/02 04:33:55;;;;;;;;;;;15.60;63.60;;;;;;5051740;28;76526;-68
2021/04/02 04:36:22;;;;;;;;;;;15.70;65.10;;;;;;5053256;28;74505;-68
2021/04/02 04:38:48;;;;;;;;;;;15.60;65.00;;;;;;5051389;28;78199;-67
2021/04/02 04:41:15;;;;;;;;;;;15.70;65.50;;;;;;5051580;28;75218;-69
2021/04/02 04:43:41;;;;;;;;;;;15.70;65.70;;;;;;5052884;28;74507;-69
2021/04/02 04:46:07;;;;;;;;;;;15.60;65.80;;;;;;5052680;28;75082;-67
2021/04/02 04:48:33;;;;;;;;;;;15.60;65.60;;;;;;5052825;28;74340;-68
2021/04/02 04:50:59;;;;;;;;;;;15.70;65.70;;;;;;5051494;28;76537;-68
2021/04/02 04:53:26;;;;;;;;;;;15.60;65.60;;;;;;5051132;28;77714;-66
2021/04/02 04:55:53;;;;;;;;;;;15.60;64.20;;;;;;5052655;28;75106;-66
2021/04/02 04:58:20;;;;;;;;;;;15.50;65.70;;;;;;5051177;28;78587;-67
2021/04/02 05:00:46;;;;;;;;;;;15.50;66.80;;;;;;5050706;28;77166;-66
2021/04/02 05:03:13;;;;;;;;;;;15.40;66.50;;;;;;5049397;27;78086;-68
2021/04/02 05:05:40;;;;;;;;;;;15.40;65.60;;;;;;5050559;28;76166;-66
2021/04/02 05:08:06;;;;;;;;;;;15.30;66.00;;;;;;5052507;28;75136;-68
2021/04/02 05:10:33;;;;;;;;;;;15.20;67.00;;;;;;5052365;28;75731;-68
2021/04/02 05:13:00;;;;;;;;;;;15.20;66.70;;;;;;5052911;28;74471;-68
2021/04/02 05:15:26;;;;;;;;;;;15.20;67.10;;;;;;5052541;28;75808;-67
2021/04/02 05:17:53;;;;;;;;;;;15.20;66.90;;;;;;5052211;28;75306;-69
2021/04/02 05:20:19;;;;;;;;;;;15.20;68.50;;;;;;5052310;28;75816;-67
2021/04/02 05:22:45;;;;;;;;;;;15.20;70.30;;;;;;5052465;28;74580;-70
2021/04/02 05:25:11;;;;;;;;;;;15.00;69.10;;;;;;5051928;28;76242;-70
2021/04/02 05:27:37;;;;;;;;;;;14.90;72.90;;;;;;5051700;28;76231;-64
2021/04/02 05:30:04;;;;;;;;;;;14.70;75.00;;;;;;5052069;28;75450;-65
2021/04/02 05:32:30;;;;;;;;;;;14.50;74.20;;;;;;5052126;28;76107;-67
2021/04/02 05:34:55;;;;;;;;;;;14.50;75.30;;;;;;5050587;28;78321;-67
2021/04/02 05:37:21;;;;;;;;;;;14.40;75.60;;;;;;5052186;28;75282;-65
2021/04/02 05:39:46;;;;;;;;;;;14.30;75.30;;;;;;5052248;28;75300;-68
2021/04/02 05:42:14;;;;;;;;;;;14.30;76.20;;;;;;5052225;28;75129;-66
2021/04/02 05:44:40;;;;;;;;;;;14.20;77.20;;;;;;5051873;28;75228;-66
2021/04/02 05:47:06;;;;;;;;;;;14.00;75.40;;;;;;5052431;28;74432;-66
2021/04/02 05:49:32;;;;;;;;;;;14.00;78.30;;;;;;5052034;28;75244;-66
2021/04/02 05:51:58;;;;;;;;;;;14.00;80.00;;;;;;5050120;28;78353;-66
2021/04/02 05:54:29;;;;;;;;;;;13.90;80.30;;;;;;5050459;28;75428;-67
2021/04/02 05:56:54;;;;;;;;;;;13.90;80.90;;;;;;5050950;28;76728;-66
2021/04/02 05:59:20;;;;;;;;;;;13.90;81.20;;;;;;5050730;27;75319;-66
2021/04/02 06:01:46;;;;;;;;;;;14.00;81.60;;;;;;5050017;27;77654;-69
2021/04/02 06:04:12;;;;;;;;;;;14.00;81.90;;;;;;5050145;28;78428;-66
2021/04/02 06:06:38;;;;;;;;;;;14.00;82.50;;;;;;5051728;28;75484;-67
2021/04/02 06:09:04;;;;;;;;;;;14.10;82.50;;;;;;5051674;28;74584;-66
2021/04/02 06:11:29;;;;;;;;;;;14.00;82.40;;;;;;5052317;28;74516;-67
2021/04/02 06:13:55;;;;;;;;;;;14.00;82.10;;;;;;5051214;28;77636;-66
2021/04/02 06:16:20;;;;;;;;;;;13.90;81.60;;;;;;5053670;28;75296;-65
2021/04/02 06:18:46;;;;;;;;;;;13.90;82.00;;;;;;5055300;28;74498;-66
2021/04/02 06:21:13;;;;;;;;;;;13.90;82.30;;;;;;5053387;28;77425;-65
2021/04/02 06:23:40;;;;;;;;;;;13.90;82.60;;;;;;5055679;28;74555;-65
2021/04/02 06:26:13;;;;;;;;;;;13.90;82.60;;;;;;5055150;28;75141;-67
2021/04/02 06:28:39;;;;;;;;;;;13.90;82.50;;;;;;5053206;28;77199;-66
2021/04/02 06:31:05;;;;;;;;;;;13.80;82.80;;;;;;5054967;28;75751;-67
2021/04/02 06:33:38;;;;;;;;;;;13.70;82.90;;;;;;5055316;28;75323;-68
2021/04/02 06:36:14;;;;;;;;;;;13.70;82.90;;;;;;5055502;28;74445;-66
2021/04/02 06:38:41;;;;;;;;;;;13.70;82.60;;;;;;5054892;28;74473;-68
2021/04/02 06:41:07;;;;;;;;;;;13.80;82.90;;;;;;5055005;28;75184;-67
2021/04/02 06:43:41;;;;;;;;;;;13.90;82.80;;;;;;5053606;28;78048;-72
2021/04/02 06:46:11;;;;;;;;;;;13.90;82.70;;;;;;5056263;28;75169;-74
2021/04/02 06:48:37;;;;;;;;;;;13.90;82.50;;;;;;5053195;28;75295;-74
2021/04/02 06:51:03;;;;;;;;;;;13.90;82.50;;;;;;5053619;28;76815;-74
2021/04/02 06:53:32;;;;;;;;;;;13.90;82.70;;;;;;5055277;28;74412;-74
2021/04/02 06:55:58;;;;;;;;;;;13.80;83.30;;;;;;5053466;28;78212;-74
2021/04/02 06:58:25;;;;;;;;;;;13.70;83.40;;;;;;5053374;28;76711;-74
2021/04/02 07:00:51;;;;;;;;;;;13.60;83.40;;;;;;5055256;28;75191;-75
2021/04/02 07:03:18;;;;;;;;;;;13.60;83.30;;;;;;5053131;28;78284;-73
2021/04/02 07:05:44;;;;;;;;;;;13.70;83.50;;;;;;5052965;28;74728;-74
2021/04/02 07:08:14;;;;;;;;;;;13.60;83.50;;;;;;5053151;28;74553;-74
2021/04/02 07:10:40;;;;;;;;;;;13.60;83.50;;;;;;5054223;28;75600;-75
2021/04/02 07:13:12;;;;;;;;;;;13.60;83.40;;;;;;5057245;28;74801;-75
2021/04/02 07:15:38;;;;;;;;;;;13.60;83.30;;;;;;5053545;28;74853;-75
2021/04/02 07:18:06;;;;;;;;;;;13.70;83.50;;;;;;5053144;28;75957;-74
2021/04/02 07:20:32;;;;;;;;;;;13.70;83.20;;;;;;5054529;28;75185;-77
2021/04/02 07:23:00;;;;;;;;;;;13.80;83.00;;;;;;5052709;28;76446;-74
2021/04/02 07:25:26;;;;;;;;;;;13.80;83.00;;;;;;5052312;28;78368;-74
2021/04/02 07:27:52;;;;;;;;;;;13.80;82.70;;;;;;5086767;27;75829;-75
2021/04/02 07:30:20;;;;;;;;;;;13.90;82.90;;;;;;5052865;28;77234;-75
2021/04/02 07:32:46;;;;;;;;;;;13.90;83.00;;;;;;5087075;27;78661;-74
2021/04/02 07:35:19;;;;;;;;;;;14.00;83.40;;;;;;5052638;28;77778;-75
2021/04/02 07:37:53;;;;;;;;;;;13.90;83.10;;;;;;5052625;28;75204;-75
2021/04/02 07:40:23;;;;;;;;;;;14.00;83.10;;;;;;5054500;28;75257;-73
2021/04/02 07:42:50;;;;;;;;;;;14.00;83.00;;;;;;5052547;28;78149;-75
2021/04/02 07:45:18;;;;;;;;;;;14.00;82.90;;;;;;5052420;28;77600;-76
2021/04/02 07:47:49;;;;;;;;;;;14.00;82.70;;;;;;5052379;28;75343;-75
2021/04/02 07:50:15;;;;;;;;;;;14.20;82.90;;;;;;5053549;28;76035;-74
2021/04/02 07:52:40;;;;;;;;;;;14.20;82.70;;;;;;5053728;28;75483;-74
2021/04/02 07:55:16;;;;;;;;;;;14.30;82.80;;;;;;5055338;28;74977;-74
2021/04/02 07:57:54;;;;;;;;;;;14.40;82.80;;;;;;5055070;28;75623;-75
2021/04/02 08:00:38;;;;;;;;;;;14.50;82.70;;;;;;5054854;28;75773;-75
2021/04/02 08:03:07;;;;;;;;;;;14.70;82.80;;;;;;5052973;28;75452;-74
2021/04/02 08:05:32;;;;;;;;;;;14.80;82.70;;;;;;5053881;28;76475;-75
2021/04/02 08:07:58;;;;;;;;;;;14.90;82.30;;;;;;5056518;28;75433;-75
2021/04/02 08:10:26;;;;;;;;;;;14.90;82.00;;;;;;5057243;28;77882;-76
2021/04/02 08:12:52;;;;;;;;;;;15.00;82.00;;;;;;5052975;28;77635;-75
2021/04/02 08:15:19;;;;;;;;;;;15.20;81.80;;;;;;5054033;28;75739;-74
2021/04/02 08:17:46;;;;;;;;;;;15.20;81.50;;;;;;5054254;28;75176;-77
2021/04/02 08:20:16;;;;;;;;;;;15.30;80.80;;;;;;5054628;28;75334;-75
2021/04/02 08:22:42;;;;;;;;;;;15.40;80.60;;;;;;5056594;28;74551;-73
2021/04/02 08:25:13;;;;;;;;;;;15.50;80.30;;;;;;5055287;28;75138;-75
2021/04/02 08:27:42;;;;;;;;;;;15.60;78.80;;;;;;5054165;28;77533;-76
2021/04/02 08:30:09;;;;;;;;;;;15.50;78.30;;;;;;5054262;28;76492;-75
2021/04/02 08:32:36;;;;;;;;;;;15.60;78.20;;;;;;5054867;28;74501;-75
2021/04/02 08:35:03;;;;;;;;;;;15.60;77.60;;;;;;5055221;28;75193;-76
2021/04/02 08:37:29;;;;;;;;;;;15.70;76.90;;;;;;5054272;27;74638;-75
2021/04/02 08:39:56;;;;;;;;;;;15.70;76.30;;;;;;5052955;28;78078;-75
2021/04/02 08:42:28;;;;;;;;;;;15.80;76.00;;;;;;5052309;28;77145;-75
2021/04/02 08:44:53;;;;;;;;;;;15.90;75.40;;;;;;5053389;27;75873;-76
2021/04/02 08:47:19;;;;;;;;;;;15.90;75.00;;;;;;5054710;28;75164;-75
2021/04/02 08:49:51;;;;;;;;;;;16.00;74.60;;;;;;5054685;28;75027;-74
2021/04/02 08:52:21;;;;;;;;;;;16.10;74.60;;;;;;5056221;28;75287;-75
2021/04/02 08:54:50;;;;;;;;;;;16.30;74.00;;;;;;5059664;27;75132;-73
2021/04/02 08:57:16;;;;;;;;;;;16.40;73.50;;;;;;5053169;27;75786;-75
2021/04/02 08:59:43;;;;;;;;;;;16.40;72.50;;;;;;5053063;27;75429;-75
2021/04/02 09:02:09;;;;;;;;;;;16.50;72.60;;;;;;5052501;28;74731;-74
2021/04/02 09:04:34;;;;;;;;;;;16.50;72.30;;;;;;5051632;28;78630;-74
2021/04/02 09:07:00;;;;;;;;;;;16.40;72.90;;;;;;5052829;28;75156;-74
2021/04/02 09:09:28;;;;;;;;;;;16.30;72.70;;;;;;5052413;27;94450;-74
2021/04/02 09:11:54;;;;;;;;;;;16.30;72.50;;;;;;5052669;28;75576;-75
2021/04/02 09:14:20;;;;;;;;;;;16.20;72.80;;;;;;5051222;28;77507;-73
2021/04/02 09:16:48;;;;;;;;;;;16.10;73.70;;;;;;5051122;28;76718;-74
2021/04/02 09:19:14;;;;;;;;;;;16.10;73.80;;;;;;5052816;28;75244;-76
2021/04/02 09:21:40;;;;;;;;;;;15.90;72.10;;;;;;5051220;28;74727;-75
2021/04/02 09:24:06;;;;;;;;;;;15.90;72.60;;;;;;5050912;28;74803;-74
2021/04/02 09:26:36;;;;;;;;;;;15.90;72.80;;;;;;5052592;28;75784;-73
2021/04/02 09:29:02;;;;;;;;;;;15.90;72.80;;;;;;5052709;28;75229;-73
2021/04/02 09:31:29;;;;;;;;;;;16.00;72.80;;;;;;5052565;28;75292;-74
2021/04/02 09:33:56;;;;;;;;;;;16.20;72.80;;;;;;5052723;28;75094;-73
2021/04/02 09:36:23;;;;;;;;;;;16.30;72.50;;;;;;5050591;28;76710;-74
2021/04/02 09:38:50;;;;;;;;;;;16.40;71.80;;;;;;5051895;28;74564;-74
2021/04/02 09:41:21;;;;;;;;;;;16.30;71.40;;;;;;5052164;28;75267;-75
2021/04/02 09:43:48;;;;;;;;;;;16.40;70.50;;;;;;5052454;28;75173;-74
2021/04/02 09:46:15;;;;;;;;;;;16.50;70.70;;;;;;5052135;28;75133;-74
2021/04/02 09:48:40;;;;;;;;;;;16.50;69.60;;;;;;5053366;27;75456;-74
2021/04/02 09:51:06;;;;;;;;;;;16.60;69.40;;;;;;5054080;28;75227;-74
2021/04/02 09:53:33;;;;;;;;;;;16.80;69.20;;;;;;5055197;28;75856;-75
2021/04/02 09:55:58;;;;;;;;;;;16.90;68.80;;;;;;5056697;28;74432;-74
2021/04/02 09:58:25;;;;;;;;;;;17.00;67.60;;;;;;5087777;27;76689;-74
2021/04/02 10:00:51;;;;;;;;;;;17.20;66.80;;;;;;5054273;28;77053;-75
2021/04/02 10:03:16;;;;;;;;;;;17.20;66.70;;;;;;5053556;28;75420;-76
2021/04/02 10:05:42;;;;;;;;;;;17.20;66.20;;;;;;5055669;28;75581;-74
2021/04/02 10:08:08;;;;;;;;;;;17.30;66.10;;;;;;5054234;28;76449;-74
2021/04/02 10:10:34;;;;;;;;;;;17.40;66.10;;;;;;5053572;28;77090;-74
2021/04/02 10:13:00;;;;;;;;;;;17.50;65.40;;;;;;5055593;28;75356;-74
2021/04/02 10:15:25;;;;;;;;;;;17.60;63.90;;;;;;5055472;28;75172;-75
2021/04/02 10:17:51;;;;;;;;;;;17.70;65.00;;;;;;5056077;28;74388;-74
2021/04/02 10:20:17;;;;;;;;;;;18.10;63.70;;;;;;5055486;28;75188;-74
2021/04/02 10:22:42;;;;;;;;;;;18.40;62.60;;;;;;5053626;28;74655;-75
2021/04/02 10:25:08;;;;;;;;;;;18.80;60.60;;;;;;5053944;28;75332;-73
2021/04/02 10:27:34;;;;;;;;;;;19.00;59.90;;;;;;5053401;28;76270;-74
2021/04/02 10:30:00;;;;;;;;;;;19.20;59.10;;;;;;5055767;28;74620;-73
2021/04/02 10:32:26;;;;;;;;;;;19.30;55.60;;;;;;5053770;28;74468;-73
2021/04/02 10:34:53;;;;;;;;;;;19.40;56.30;;;;;;5053657;28;75378;-75
2021/04/02 10:37:19;;;;;;;;;;;19.40;56.50;;;;;;5070616;27;74584;-73
2021/04/02 10:39:44;;;;;;;;;;;19.40;56.40;;;;;;5053502;28;75505;-74
2021/04/02 10:42:10;;;;;;;;;;;19.50;57.20;;;;;;5053273;28;75368;-74
2021/04/02 10:44:36;;;;;;;;;;;19.80;55.90;;;;;;5053306;28;75799;-75
2021/04/02 10:47:02;;;;;;;;;;;20.00;54.70;;;;;;5053305;28;75891;-75
2021/04/02 10:49:27;;;;;;;;;;;20.20;53.00;;;;;;5053014;28;77934;-74
2021/04/02 10:51:53;;;;;;;;;;;20.40;53.20;;;;;;5055609;28;74491;-74
2021/04/02 10:54:19;;;;;;;;;;;20.80;52.80;;;;;;5053135;28;75136;-74
2021/04/02 10:56:45;;;;;;;;;;;21.40;51.20;;;;;;5054699;28;74456;-75
2021/04/02 10:59:11;;;;;;;;;;;21.90;51.20;;;;;;5055010;28;75332;-76
2021/04/02 11:01:36;;;;;;;;;;;22.20;50.80;;;;;;5052074;28;78711;-74
2021/04/02 11:04:02;;;;;;;;;;;22.60;49.40;;;;;;5052887;28;76436;-73
2021/04/02 11:06:27;;;;;;;;;;;22.90;49.50;;;;;;5052639;28;76814;-74
2021/04/02 11:08:53;;;;;;;;;;;22.80;47.70;;;;;;5052861;28;79378;-77
2021/04/02 11:11:19;;;;;;;;;;;22.50;47.50;;;;;;5054511;27;74655;-75
2021/04/02 11:13:44;;;;;;;;;;;22.40;48.00;;;;;;5054514;28;75203;-75
2021/04/02 11:16:10;;;;;;;;;;;23.10;48.10;;;;;;5052746;28;78241;-74
2021/04/02 11:18:35;;;;;;;;;;;23.20;48.20;;;;;;5052785;28;75376;-75
2021/04/02 11:21:01;;;;;;;;;;;22.90;48.00;;;;;;5055068;28;74468;-74
2021/04/02 11:23:27;;;;;;;;;;;22.40;48.30;;;;;;5053312;28;77355;-73
2021/04/02 11:25:53;;;;;;;;;;;22.20;48.40;;;;;;5054440;28;75204;-74
2021/04/02 11:28:18;;;;;;;;;;;21.90;49.00;;;;;;5054324;28;74999;-75
2021/04/02 11:30:44;;;;;;;;;;;21.50;49.70;;;;;;5052747;28;77219;-75
2021/04/02 11:33:10;;;;;;;;;;;21.00;49.70;;;;;;5053037;28;77274;-75
2021/04/02 11:35:35;;;;;;;;;;;20.60;51.90;;;;;;5052927;28;78269;-74
2021/04/02 11:38:01;;;;;;;;;;;20.40;53.50;;;;;;5054634;28;75205;-74
2021/04/02 11:40:27;;;;;;;;;;;20.10;54.50;;;;;;5054562;28;74523;-75
2021/04/02 11:42:53;;;;;;;;;;;20.00;54.80;;;;;;5054396;28;75777;-74
2021/04/02 11:45:18;;;;;;;;;;;19.90;54.00;;;;;;5054042;28;75312;-74
2021/04/02 11:47:44;;;;;;;;;;;19.70;53.90;;;;;;5052121;28;79370;-74
2021/04/02 11:50:10;;;;;;;;;;;19.60;54.60;;;;;;5054669;28;74452;-74
2021/04/02 11:52:36;;;;;;;;;;;19.50;54.50;;;;;;5052345;28;76982;-75
2021/04/02 11:55:02;;;;;;;;;;;19.20;54.20;;;;;;5054002;28;75170;-74
2021/04/02 11:57:29;;;;;;;;;;;19.10;53.50;;;;;;5052216;28;77062;-73
2021/04/02 11:59:54;;;;;;;;;;;19.00;54.10;;;;;;5053918;28;75086;-74
2021/04/02 12:02:20;;;;;;;;;;;18.90;54.80;;;;;;5053903;28;74577;-75
2021/04/02 12:04:46;;;;;;;;;;;18.80;54.50;;;;;;5052429;28;77014;-75
2021/04/02 12:07:11;;;;;;;;;;;18.80;55.80;;;;;;5052228;28;76152;-75
2021/04/02 12:09:37;;;;;;;;;;;18.70;56.40;;;;;;5054181;28;75428;-77
2021/04/02 12:12:03;;;;;;;;;;;18.70;56.60;;;;;;5053986;27;74444;-74
2021/04/02 12:14:29;;;;;;;;;;;18.60;57.50;;;;;;5053603;27;75012;-74
2021/04/02 12:16:54;;;;;;;;;;;18.40;58.00;;;;;;5052017;28;77134;-74
2021/04/02 12:19:20;;;;;;;;;;;18.20;57.40;;;;;;5053693;28;75181;-74
2021/04/02 12:21:46;;;;;;;;;;;18.10;59.40;;;;;;5051856;28;77667;-75
2021/04/02 12:24:11;;;;;;;;;;;18.10;60.30;;;;;;5054233;28;74440;-75
2021/04/02 12:26:38;;;;;;;;;;;17.90;60.20;;;;;;5053445;28;75650;-74
2021/04/02 12:29:04;;;;;;;;;;;17.90;61.50;;;;;;5053173;28;75303;-74
2021/04/02 12:31:29;;;;;;;;;;;17.90;61.70;;;;;;5053809;28;74659;-75
2021/04/02 12:33:55;;;;;;;;;;;17.90;61.30;;;;;;5052229;28;78103;-73
2021/04/02 12:36:21;;;;;;;;;;;17.90;61.50;;;;;;5053835;28;74489;-75
2021/04/02 12:38:46;;;;;;;;;;;17.80;61.30;;;;;;5053531;28;75129;-74
2021/04/02 12:41:12;;;;;;;;;;;17.80;61.30;;;;;;5053081;27;75703;-73
2021/04/02 12:43:37;;;;;;;;;;;17.80;60.70;;;;;;5053436;28;75192;-73
2021/04/02 12:46:03;;;;;;;;;;;17.80;61.40;;;;;;5051605;28;78038;-76
2021/04/02 12:48:30;;;;;;;;;;;17.90;61.40;;;;;;5052205;28;77709;-75
2021/04/02 12:50:57;;;;;;;;;;;18.00;61.40;;;;;;5069115;27;75130;-74
2021/04/02 12:53:23;;;;;;;;;;;18.00;60.60;;;;;;5053225;28;75156;-74
2021/04/02 12:55:49;;;;;;;;;;;18.10;60.80;;;;;;5051514;27;75785;-75
2021/04/02 12:58:15;;;;;;;;;;;18.20;60.60;;;;;;5051335;28;77813;-75
2021/04/02 13:00:41;;;;;;;;;;;18.20;60.50;;;;;;5051362;28;77215;-73
2021/04/02 13:03:07;;;;;;;;;;;18.40;60.60;;;;;;5051142;28;75289;-76
2021/04/02 13:05:32;;;;;;;;;;;18.50;59.60;;;;;;5051608;28;77018;-75
2021/04/02 13:07:58;;;;;;;;;;;18.70;59.30;;;;;;5051225;28;77140;-74
2021/04/02 13:10:25;;;;;;;;;;;18.80;59.00;;;;;;5053288;28;75217;-74
2021/04/02 13:12:53;;;;;;;;;;;19.10;58.80;;;;;;5051348;28;75410;-74
2021/04/02 13:15:19;;;;;;;;;;;19.30;57.50;;;;;;5051105;28;76483;-75
2021/04/02 13:17:46;;;;;;;;;;;19.50;56.40;;;;;;5051600;28;75535;-76
2021/04/02 13:20:12;;;;;;;;;;;19.70;56.00;;;;;;5052655;28;75141;-75
2021/04/02 13:22:38;;;;;;;;;;;19.90;55.40;;;;;;5050429;28;76275;-75
2021/04/02 13:25:04;;;;;;;;;;;19.90;54.90;;;;;;5050931;28;78144;-74
2021/04/02 13:27:30;;;;;;;;;;;19.70;55.30;;;;;;5052834;28;75250;-73
2021/04/02 13:30:08;;;;;;;;;;;19.50;55.50;;;;;;5051243;28;75318;-75
2021/04/02 13:32:38;;;;;;;;;;;19.30;56.10;;;;;;5051457;28;76374;-75
2021/04/02 13:35:05;;;;;;;;;;;19.50;56.00;;;;;;5051073;28;75332;-75
2021/04/02 13:37:30;;;;;;;;;;;20.10;54.60;;;;;;5067548;27;76630;-73
2021/04/02 13:39:56;;;;;;;;;;;21.10;53.00;;;;;;5050983;28;77391;-74
2021/04/02 13:42:22;;;;;;;;;;;23.40;46.00;;;;;;5052635;28;74515;-74
2021/04/02 13:44:47;;;;;;;;;;;24.50;43.20;;;;;;5050882;28;78102;-74
2021/04/02 13:47:13;;;;;;;;;;;25.40;41.60;;;;;;5085282;27;77332;-74
2021/04/02 13:49:38;;;;;;;;;;;26.40;39.10;;;;;;5084655;27;77403;-74
2021/04/02 13:52:04;;;;;;;;;;;25.90;40.00;;;;;;5051030;28;77502;-74
2021/04/02 13:54:30;;;;;;;;;;;25.50;40.80;;;;;;5051103;28;77706;-75
2021/04/02 13:56:55;;;;;;;;;;;26.00;40.60;;;;;;5050903;28;75543;-75
2021/04/02 13:59:21;;;;;;;;;;;26.80;39.70;;;;;;5052395;28;74673;-75
2021/04/02 14:01:47;;;;;;;;;;;27.00;38.40;;;;;;5050432;28;77519;-76
2021/04/02 14:04:12;;;;;;;;;;;27.30;38.60;;;;;;5050869;28;77866;-73
2021/04/02 14:06:38;;;;;;;;;;;27.50;36.80;;;;;;5052055;28;75812;-74
2021/04/02 14:09:03;;;;;;;;;;;27.50;37.60;;;;;;5052448;28;75197;-74
2021/04/02 14:11:29;;;;;;;;;;;26.50;38.00;;;;;;5051859;28;75004;-74
2021/04/02 14:13:55;;;;;;;;;;;25.90;38.10;;;;;;5052338;28;75807;-74